createdAt,value
2023-12-19T00:01:53.782Z,0.57
2023-12-19T00:04:20.360Z,0.67
2023-12-19T00:06:46.797Z,0.70
2023-12-19T00:09:13.456Z,0.64
2023-12-19T00:11:39.932Z,0.76
2023-12-19T00:14:07.536Z,0.67
2023-12-19T00:16:34.785Z,0.61
2023-12-19T00:19:01.442Z,0.62
2023-12-19T00:21:27.926Z,0.61
2023-12-19T00:23:54.785Z,0.62
2023-12-19T00:26:22.875Z,0.57
2023-12-19T00:28:49.431Z,0.79
2023-12-19T00:31:23.479Z,0.77
2023-12-19T00:33:50.439Z,0.93
2023-12-19T00:36:24.130Z,1.11
2023-12-19T00:38:51.164Z,1.04
2023-12-19T00:41:18.204Z,1.04
2023-12-19T00:43:45.468Z,1.20
2023-12-19T00:46:12.289Z,1.37
2023-12-19T00:48:39.206Z,1.49
2023-12-19T00:51:10.759Z,1.39
2023-12-19T00:53:37.767Z,1.57
2023-12-19T00:56:08.512Z,1.50
2023-12-19T00:58:36.752Z,1.35
2023-12-19T01:01:04.305Z,1.46
2023-12-19T01:03:30.981Z,1.25
2023-12-19T01:05:57.453Z,1.32
2023-12-19T01:08:23.920Z,1.46
2023-12-19T01:10:50.466Z,1.49
2023-12-19T01:13:16.945Z,1.55
2023-12-19T01:15:43.378Z,1.60
2023-12-19T01:18:09.990Z,1.50
2023-12-19T01:20:36.494Z,1.56
2023-12-19T01:23:03.002Z,1.66
2023-12-19T01:25:29.406Z,1.91
2023-12-19T01:27:56.103Z,1.79
2023-12-19T01:30:22.611Z,1.67
2023-12-19T01:32:50.163Z,1.48
2023-12-19T01:35:16.633Z,1.26
2023-12-19T01:37:43.807Z,1.23
2023-12-19T01:40:10.688Z,1.45
2023-12-19T01:42:37.218Z,1.60
2023-12-19T01:45:10.751Z,1.62
2023-12-19T01:47:44.842Z,1.44
2023-12-19T01:50:13.615Z,1.41
2023-12-19T01:52:44.397Z,1.46
2023-12-19T01:55:11.645Z,1.72
2023-12-19T01:57:39.234Z,1.59
2023-12-19T02:00:06.508Z,1.26
2023-12-19T02:02:33.281Z,1.16
2023-12-19T02:05:00.280Z,1.12
2023-12-19T02:07:26.843Z,1.16
2023-12-19T02:09:53.579Z,1.19
2023-12-19T02:12:20.650Z,1.07
2023-12-19T02:14:50.008Z,1.23
2023-12-19T02:17:18.084Z,1.31
2023-12-19T02:19:48.614Z,1.51
2023-12-19T02:22:15.740Z,1.16
2023-12-19T02:24:42.763Z,1.30
2023-12-19T02:27:10.572Z,1.26
2023-12-19T02:29:37.109Z,1.42
2023-12-19T02:32:04.402Z,1.52
2023-12-19T02:34:31.616Z,1.43
2023-12-19T02:36:58.219Z,1.46
2023-12-19T02:39:24.865Z,1.17
2023-12-19T02:41:51.307Z,1.26
2023-12-19T02:44:17.723Z,1.12
2023-12-19T02:46:44.137Z,0.83
2023-12-19T02:49:10.710Z,0.96
2023-12-19T02:51:37.339Z,1.25
2023-12-19T02:54:03.942Z,1.22
2023-12-19T02:56:31.712Z,1.09
2023-12-19T02:58:58.138Z,1.17
2023-12-19T03:01:24.729Z,1.39
2023-12-19T03:03:51.360Z,1.48
2023-12-19T03:06:17.861Z,1.34
2023-12-19T03:08:48.563Z,1.12
2023-12-19T03:11:16.096Z,1.08
2023-12-19T03:13:42.566Z,0.84
2023-12-19T03:16:09.058Z,0.97
2023-12-19T03:18:35.920Z,0.92
2023-12-19T03:21:02.455Z,0.98
2023-12-19T03:23:29.493Z,1.23
2023-12-19T03:25:56.111Z,1.12
2023-12-19T03:28:22.561Z,1.08
2023-12-19T03:30:49.116Z,0.97
2023-12-19T03:33:15.775Z,1.08
2023-12-19T03:35:42.184Z,1.02
2023-12-19T03:38:08.954Z,1.08
2023-12-19T03:40:37.500Z,1.20
2023-12-19T03:43:04.626Z,1.20
2023-12-19T03:45:31.123Z,1.27
2023-12-19T03:47:57.698Z,1.33
2023-12-19T03:50:24.181Z,1.36
2023-12-19T03:52:50.934Z,1.43
2023-12-19T03:55:17.630Z,1.71
2023-12-19T03:57:44.136Z,1.97
2023-12-19T04:00:11.337Z,2.20
2023-12-19T04:02:37.961Z,2.18
2023-12-19T04:05:05.109Z,2.33
2023-12-19T04:07:33.445Z,2.45
2023-12-19T04:10:00.321Z,2.59
2023-12-19T04:12:26.970Z,2.64
2023-12-19T04:14:53.681Z,2.43
2023-12-19T04:17:20.959Z,2.14
2023-12-19T04:19:47.401Z,1.92
2023-12-19T04:22:13.987Z,1.67
2023-12-19T04:24:41.147Z,1.57
2023-12-19T04:27:07.552Z,1.58
2023-12-19T04:29:33.953Z,1.50
2023-12-19T04:32:00.330Z,1.42
2023-12-19T04:34:26.858Z,1.08
2023-12-19T04:36:53.385Z,0.88
2023-12-19T04:39:19.867Z,0.86
2023-12-19T04:41:46.302Z,0.93
2023-12-19T04:44:12.723Z,0.98
2023-12-19T04:46:39.175Z,0.98
2023-12-19T04:49:05.859Z,1.09
2023-12-19T04:51:32.395Z,1.23
2023-12-19T04:54:00.800Z,1.04
2023-12-19T04:56:27.198Z,1.10
2023-12-19T04:58:53.581Z,1.34
2023-12-19T05:01:20.100Z,1.52
2023-12-19T05:03:46.711Z,1.59
2023-12-19T05:06:18.297Z,1.76
2023-12-19T05:08:49.186Z,1.43
2023-12-19T05:11:15.991Z,1.12
2023-12-19T05:13:42.674Z,1.15
2023-12-19T05:16:12.743Z,1.15
2023-12-19T05:18:41.577Z,1.16
2023-12-19T05:21:09.218Z,1.08
2023-12-19T05:23:36.554Z,0.90
2023-12-19T05:26:06.873Z,0.92
2023-12-19T05:28:36.687Z,0.97
2023-12-19T05:31:03.248Z,1.03
2023-12-19T05:33:30.840Z,1.15
2023-12-19T05:35:57.563Z,1.34
2023-12-19T05:38:24.019Z,1.32
2023-12-19T05:40:52.994Z,1.32
2023-12-19T05:43:19.393Z,1.33
2023-12-19T05:45:45.790Z,1.22
2023-12-19T05:48:12.265Z,1.24
2023-12-19T05:50:38.873Z,1.13
2023-12-19T05:53:05.539Z,0.96
2023-12-19T05:55:32.526Z,0.64
2023-12-19T05:57:59.001Z,0.60
2023-12-19T06:00:25.454Z,0.63
2023-12-19T06:02:52.198Z,0.75
2023-12-19T06:05:19.343Z,0.79
2023-12-19T06:07:45.773Z,0.69
2023-12-19T06:10:13.387Z,0.43
2023-12-19T06:12:40.419Z,0.41
2023-12-19T06:15:12.684Z,0.45
2023-12-19T06:17:43.542Z,0.45
2023-12-19T06:20:11.454Z,0.58
2023-12-19T06:22:38.950Z,0.76
2023-12-19T06:25:06.210Z,0.79
2023-12-19T06:27:33.957Z,0.99
2023-12-19T06:30:04.156Z,1.18
2023-12-19T06:32:37.838Z,1.22
2023-12-19T06:35:06.964Z,0.71
2023-12-19T06:37:33.354Z,0.70
2023-12-19T06:40:00.216Z,0.73
2023-12-19T06:42:26.765Z,0.79
2023-12-19T06:44:53.177Z,0.82
2023-12-19T06:47:19.607Z,0.73
2023-12-19T06:49:46.107Z,0.77
2023-12-19T06:52:12.514Z,0.85
2023-12-19T06:54:39.821Z,0.84
2023-12-19T06:57:06.599Z,0.75
2023-12-19T06:59:36.004Z,0.78
2023-12-19T07:02:02.470Z,0.78
2023-12-19T07:04:29.061Z,1.05
2023-12-19T07:06:55.846Z,0.86
2023-12-19T07:09:22.297Z,0.85
2023-12-19T07:11:48.758Z,0.91
2023-12-19T07:14:15.183Z,1.04
2023-12-19T07:16:41.661Z,1.16
2023-12-19T07:19:08.338Z,0.97
2023-12-19T07:21:36.456Z,1.16
2023-12-19T07:24:02.929Z,1.13
2023-12-19T07:26:30.769Z,1.22
2023-12-19T07:28:58.784Z,1.38
2023-12-19T07:31:29.827Z,1.43
2023-12-19T07:33:59.404Z,1.52
2023-12-19T07:36:29.564Z,1.67
2023-12-19T07:38:56.126Z,1.79
2023-12-19T07:41:24.277Z,1.88
2023-12-19T07:43:50.937Z,1.63
2023-12-19T07:46:17.355Z,1.25
2023-12-19T07:48:44.059Z,1.36
2023-12-19T07:51:19.238Z,1.53
2023-12-19T07:53:45.772Z,1.36
2023-12-19T07:56:12.204Z,1.45
2023-12-19T07:58:38.623Z,1.38
2023-12-19T08:01:05.526Z,1.34
2023-12-19T08:03:32.982Z,1.33
2023-12-19T08:05:59.679Z,1.39
2023-12-19T08:08:26.964Z,1.50
2023-12-19T08:10:53.727Z,1.58
2023-12-19T08:13:23.393Z,1.59
2023-12-19T08:15:50.783Z,1.58
2023-12-19T08:18:17.979Z,1.71
2023-12-19T08:20:44.532Z,1.84
2023-12-19T08:23:10.941Z,1.82
2023-12-19T08:25:40.076Z,1.81
2023-12-19T08:28:08.238Z,1.76
2023-12-19T08:30:35.089Z,2.02
2023-12-19T08:33:01.817Z,2.24
2023-12-19T08:35:28.443Z,2.21
2023-12-19T08:37:54.990Z,2.16
2023-12-19T08:40:21.417Z,1.71
2023-12-19T08:42:49.862Z,1.93
2023-12-19T08:45:18.006Z,2.14
2023-12-19T08:47:45.676Z,2.35
2023-12-19T08:50:14.204Z,2.63
2023-12-19T08:52:42.409Z,2.78
2023-12-19T08:55:13.016Z,2.92
2023-12-19T08:57:43.387Z,3.03
2023-12-19T09:00:17.115Z,3.12
2023-12-19T09:02:44.805Z,2.97
2023-12-19T09:05:12.322Z,3.16
2023-12-19T09:07:39.242Z,3.31
2023-12-19T09:10:06.848Z,3.31
2023-12-19T09:12:34.746Z,3.32
2023-12-19T09:15:01.576Z,3.25
2023-12-19T09:17:28.040Z,3.29
2023-12-19T09:19:56.552Z,3.46
2023-12-19T09:22:23.493Z,3.50
2023-12-19T09:24:49.991Z,3.59
2023-12-19T09:27:17.307Z,3.60
2023-12-19T09:29:44.306Z,3.62
2023-12-19T09:32:10.980Z,3.58
2023-12-19T09:34:41.381Z,3.72
2023-12-19T09:37:08.331Z,3.87
2023-12-19T09:39:34.870Z,3.96
2023-12-19T09:42:03.905Z,4.03
2023-12-19T09:44:31.256Z,4.02
2023-12-19T09:46:57.705Z,4.10
2023-12-19T09:49:26.947Z,4.16
2023-12-19T09:51:54.956Z,4.16
2023-12-19T09:54:22.665Z,4.15
2023-12-19T09:56:57.666Z,4.26
2023-12-19T09:59:24.234Z,4.38
2023-12-19T10:01:50.724Z,4.45
2023-12-19T10:04:18.394Z,4.48
2023-12-19T10:06:56.077Z,4.39
2023-12-19T10:09:23.470Z,3.52
2023-12-19T10:12:11.809Z,2.83
2023-12-19T10:14:38.449Z,2.87
2023-12-19T10:17:12.676Z,2.88
2023-12-19T10:19:39.877Z,2.97
2023-12-19T10:22:11.640Z,3.11
2023-12-19T10:24:38.292Z,3.41
2023-12-19T10:27:09.525Z,3.42
2023-12-19T10:29:39.979Z,3.25
2023-12-19T10:32:20.736Z,3.34
2023-12-19T10:34:48.386Z,3.39
2023-12-19T10:37:19.179Z,3.65
2023-12-19T10:39:45.753Z,3.89
2023-12-19T10:42:12.986Z,3.92
2023-12-19T10:44:43.543Z,3.92
2023-12-19T10:47:11.828Z,4.00
2023-12-19T10:49:39.661Z,4.14
2023-12-19T10:52:09.518Z,4.11
2023-12-19T10:54:37.296Z,4.15
2023-12-19T10:57:17.042Z,4.23
2023-12-19T11:00:14.881Z,4.36
2023-12-19T11:02:47.431Z,4.50
2023-12-19T11:05:37.889Z,4.61
2023-12-19T11:08:09.301Z,4.69
2023-12-19T11:10:39.804Z,4.80
2023-12-19T11:13:06.401Z,4.68
2023-12-19T11:15:35.741Z,4.77
2023-12-19T11:18:09.738Z,4.97
2023-12-19T11:20:43.515Z,5.00
2023-12-19T11:23:28.624Z,4.90
2023-12-19T11:26:26.211Z,4.98
2023-12-19T11:28:52.630Z,5.03
2023-12-19T11:31:28.810Z,5.04
2023-12-19T11:33:55.557Z,5.16
2023-12-19T11:36:22.147Z,5.35
2023-12-19T11:38:50.534Z,5.35
2023-12-19T11:41:39.931Z,5.32
2023-12-19T11:44:06.448Z,5.42
2023-12-19T11:46:32.825Z,5.68
2023-12-19T11:48:59.547Z,5.71
2023-12-19T11:51:51.289Z,5.87
2023-12-19T11:54:19.111Z,6.10
2023-12-19T11:56:45.860Z,6.19
2023-12-19T11:59:12.856Z,6.26
2023-12-19T12:01:43.417Z,6.29
2023-12-19T12:04:13.231Z,6.44
2023-12-19T12:06:40.370Z,6.48
2023-12-19T12:09:07.129Z,6.37
2023-12-19T12:11:59.722Z,6.49
2023-12-19T12:14:28.749Z,6.57
2023-12-19T12:16:55.160Z,6.76
2023-12-19T12:19:24.450Z,6.92
2023-12-19T12:21:52.598Z,7.02
2023-12-19T12:24:28.551Z,7.13
2023-12-19T12:27:10.583Z,6.98
2023-12-19T12:29:38.430Z,7.04
2023-12-19T12:32:06.902Z,7.28
2023-12-19T12:34:33.784Z,7.51
2023-12-19T12:37:00.425Z,7.69
2023-12-19T12:39:27.208Z,7.71
2023-12-19T12:42:07.526Z,7.67
2023-12-19T12:44:35.075Z,7.76
2023-12-19T12:47:01.624Z,7.81
2023-12-19T12:49:30.370Z,7.86
2023-12-19T12:52:00.683Z,8.29
2023-12-19T12:54:27.344Z,8.47
2023-12-19T12:56:53.805Z,8.56
2023-12-19T12:59:23.939Z,8.34
2023-12-19T13:01:50.750Z,8.17
2023-12-19T13:04:18.653Z,8.11
2023-12-19T13:06:46.880Z,8.13
2023-12-19T13:09:15.159Z,8.29
2023-12-19T13:11:43.829Z,8.53
2023-12-19T13:14:10.300Z,8.29
2023-12-19T13:16:36.737Z,8.17
2023-12-19T13:19:03.358Z,8.16
2023-12-19T13:21:29.895Z,8.19
2023-12-19T13:23:57.426Z,8.25
2023-12-19T13:26:27.504Z,8.14
2023-12-19T13:28:54.374Z,8.10
2023-12-19T13:31:26.163Z,8.03
2023-12-19T13:33:53.597Z,8.03
2023-12-19T13:36:23.935Z,7.94
2023-12-19T13:38:50.452Z,7.84
2023-12-19T13:41:17.547Z,8.00
2023-12-19T13:43:44.665Z,8.13
2023-12-19T13:46:11.677Z,8.17
2023-12-19T13:48:40.677Z,8.12
2023-12-19T13:51:09.295Z,8.06
2023-12-19T13:53:35.714Z,8.04
2023-12-19T13:56:02.540Z,8.16
2023-12-19T13:58:28.983Z,8.27
2023-12-19T14:00:56.993Z,8.52
2023-12-19T14:03:23.822Z,8.72
2023-12-19T14:05:50.368Z,8.70
2023-12-19T14:08:19.171Z,8.73
2023-12-19T14:10:45.603Z,8.93
2023-12-19T14:13:12.127Z,8.89
2023-12-19T14:15:40.398Z,8.85
2023-12-19T14:18:07.146Z,8.73
2023-12-19T14:20:33.617Z,8.69
2023-12-19T14:23:01.940Z,8.70
2023-12-19T14:25:28.834Z,8.56
2023-12-19T14:27:55.395Z,8.60
2023-12-19T14:30:21.977Z,8.56
2023-12-19T14:32:48.438Z,8.48
2023-12-19T14:35:17.225Z,8.51
2023-12-19T14:37:44.073Z,8.19
2023-12-19T14:40:13.369Z,7.94
2023-12-19T14:42:39.911Z,7.85
2023-12-19T14:45:06.985Z,7.82
2023-12-19T14:47:33.477Z,7.66
2023-12-19T14:50:00.138Z,7.53
2023-12-19T14:52:27.008Z,7.38
2023-12-19T14:54:53.797Z,7.32
2023-12-19T14:57:20.315Z,7.24
2023-12-19T14:59:46.738Z,7.11
2023-12-19T15:02:13.112Z,7.11
2023-12-19T15:04:39.614Z,7.17
2023-12-19T15:07:06.396Z,7.02
2023-12-19T15:09:34.522Z,7.19
2023-12-19T15:12:01.345Z,7.21
2023-12-19T15:14:27.788Z,7.20
2023-12-19T15:16:54.995Z,7.27
2023-12-19T15:19:22.136Z,7.11
2023-12-19T15:21:49.180Z,7.13
2023-12-19T15:24:15.667Z,7.11
2023-12-19T15:26:43.512Z,6.93
2023-12-19T15:29:13.452Z,6.84
2023-12-19T15:31:45.097Z,6.83
2023-12-19T15:34:12.340Z,6.65
2023-12-19T15:36:39.397Z,6.59
2023-12-19T15:39:06.014Z,6.66
2023-12-19T15:41:32.519Z,6.64
2023-12-19T15:44:07.915Z,6.69
2023-12-19T15:46:40.796Z,6.60
2023-12-19T15:49:09.790Z,6.41
2023-12-19T15:51:36.578Z,6.43
2023-12-19T15:54:04.280Z,6.41
2023-12-19T15:56:36.099Z,6.41
2023-12-19T15:59:05.382Z,6.36
2023-12-19T16:01:32.686Z,6.30
2023-12-19T16:03:59.780Z,6.29
2023-12-19T16:06:27.302Z,6.22
2023-12-19T16:08:54.576Z,6.25
2023-12-19T16:11:24.572Z,6.28
2023-12-19T16:13:52.542Z,6.26
2023-12-19T16:16:19.079Z,6.26
2023-12-19T16:18:46.907Z,6.33
2023-12-19T16:21:15.625Z,6.33
2023-12-19T16:23:53.423Z,6.38
2023-12-19T16:26:27.836Z,6.55
2023-12-19T16:28:54.334Z,6.59
2023-12-19T16:31:20.889Z,6.53
2023-12-19T16:33:47.501Z,6.64
2023-12-19T16:36:15.066Z,6.46
2023-12-19T16:38:43.892Z,6.39
2023-12-19T16:41:11.151Z,6.39
2023-12-19T16:43:38.315Z,6.35
2023-12-19T16:46:06.810Z,6.33
2023-12-19T16:48:33.683Z,6.31
2023-12-19T16:51:01.054Z,6.26
2023-12-19T16:53:27.684Z,6.26
2023-12-19T16:55:54.214Z,6.00
2023-12-19T16:58:29.985Z,5.98
2023-12-19T17:01:02.758Z,5.90
2023-12-19T17:03:29.377Z,5.93
2023-12-19T17:05:56.188Z,5.91
2023-12-19T17:08:23.051Z,5.87
2023-12-19T17:10:49.821Z,5.88
2023-12-19T17:13:16.215Z,5.83
2023-12-19T17:15:45.226Z,5.90
2023-12-19T17:18:15.033Z,5.85
2023-12-19T17:20:41.658Z,5.81
2023-12-19T17:23:08.240Z,5.63
2023-12-19T17:25:34.726Z,5.60
2023-12-19T17:28:01.247Z,5.70
2023-12-19T17:30:27.701Z,5.63
2023-12-19T17:32:54.179Z,5.69
2023-12-19T17:35:20.885Z,5.80
2023-12-19T17:37:47.336Z,5.67
2023-12-19T17:40:14.001Z,5.78
2023-12-19T17:42:40.541Z,5.79
2023-12-19T17:45:08.459Z,5.68
2023-12-19T17:47:34.921Z,5.59
2023-12-19T17:50:01.612Z,5.53
2023-12-19T17:52:28.816Z,5.55
2023-12-19T17:54:55.758Z,5.56
2023-12-19T17:57:22.259Z,5.51
2023-12-19T17:59:48.698Z,5.54
2023-12-19T18:02:15.104Z,5.61
2023-12-19T18:04:41.590Z,5.37
2023-12-19T18:07:10.781Z,5.02
2023-12-19T18:09:37.256Z,5.02
2023-12-19T18:12:03.943Z,5.01
2023-12-19T18:14:30.366Z,5.00
2023-12-19T18:17:03.783Z,4.76
2023-12-19T18:19:31.996Z,4.78
2023-12-19T18:21:58.731Z,4.79
2023-12-19T18:24:25.570Z,4.65
2023-12-19T18:26:52.683Z,4.66
2023-12-19T18:29:20.384Z,4.74
2023-12-19T18:31:47.782Z,4.81
2023-12-19T18:34:15.465Z,4.72
2023-12-19T18:36:42.300Z,4.72
2023-12-19T18:39:08.741Z,4.73
2023-12-19T18:41:35.203Z,4.68
2023-12-19T18:44:01.774Z,4.77
2023-12-19T18:46:28.281Z,4.71
2023-12-19T18:48:55.572Z,4.73
2023-12-19T18:51:22.687Z,4.72
2023-12-19T18:53:49.522Z,4.65
2023-12-19T18:56:17.013Z,4.57
2023-12-19T18:58:44.899Z,4.75
2023-12-19T19:01:12.433Z,4.82
2023-12-19T19:03:41.362Z,4.80
2023-12-19T19:06:08.454Z,4.66
2023-12-19T19:08:35.610Z,4.72
2023-12-19T19:11:02.259Z,4.68
2023-12-19T19:13:29.098Z,4.80
2023-12-19T19:15:55.778Z,4.82
2023-12-19T19:18:24.385Z,4.74
2023-12-19T19:20:51.499Z,4.67
2023-12-19T19:23:18.202Z,4.66
2023-12-19T19:25:46.029Z,4.73
2023-12-19T19:28:13.657Z,4.82
2023-12-19T19:30:44.582Z,4.75
2023-12-19T19:33:11.745Z,4.69
2023-12-19T19:35:38.601Z,4.72
2023-12-19T19:38:05.366Z,4.74
2023-12-19T19:40:38.970Z,4.71
2023-12-19T19:43:11.074Z,4.71
2023-12-19T19:45:37.991Z,4.75
2023-12-19T19:48:05.170Z,4.91
2023-12-19T19:50:31.731Z,4.99
2023-12-19T19:52:58.666Z,4.99
2023-12-19T19:55:25.872Z,4.91
2023-12-19T19:57:53.465Z,4.76
2023-12-19T20:00:21.675Z,4.67
2023-12-19T20:02:48.281Z,4.64
2023-12-19T20:05:15.034Z,4.63
2023-12-19T20:07:41.680Z,4.66
2023-12-19T20:10:08.733Z,4.61
2023-12-19T20:12:35.328Z,4.51
2023-12-19T20:15:02.105Z,4.50
2023-12-19T20:17:28.665Z,4.60
2023-12-19T20:19:55.410Z,4.66
2023-12-19T20:22:22.081Z,4.77
2023-12-19T20:24:51.073Z,4.77
2023-12-19T20:27:17.828Z,4.81
2023-12-19T20:29:45.272Z,4.82
2023-12-19T20:32:12.258Z,4.83
2023-12-19T20:34:38.998Z,4.77
2023-12-19T20:37:05.683Z,4.87
2023-12-19T20:39:32.187Z,5.02
2023-12-19T20:41:58.743Z,4.85
2023-12-19T20:44:25.533Z,4.90
2023-12-19T20:46:53.305Z,4.95
2023-12-19T20:49:19.855Z,5.16
2023-12-19T20:51:48.954Z,4.89
2023-12-19T20:54:19.859Z,4.98
2023-12-19T20:56:48.022Z,4.83
2023-12-19T20:59:15.915Z,4.78
2023-12-19T21:01:42.600Z,4.73
2023-12-19T21:04:09.386Z,4.92
2023-12-19T21:06:35.927Z,5.08
2023-12-19T21:09:02.737Z,5.00
2023-12-19T21:11:29.645Z,4.98
2023-12-19T21:13:56.476Z,5.04
2023-12-19T21:16:22.987Z,5.02
2023-12-19T21:18:49.516Z,4.96
2023-12-19T21:21:16.044Z,4.96
2023-12-19T21:23:42.570Z,4.87
2023-12-19T21:26:09.210Z,4.84
2023-12-19T21:28:35.709Z,4.84
2023-12-19T21:31:02.441Z,4.84
2023-12-19T21:33:30.269Z,4.82
2023-12-19T21:35:56.948Z,4.89
2023-12-19T21:38:23.359Z,4.90
2023-12-19T21:40:49.894Z,4.94
2023-12-19T21:43:16.896Z,4.88
2023-12-19T21:45:43.485Z,4.86
2023-12-19T21:48:11.759Z,4.91
2023-12-19T21:50:38.260Z,5.03
2023-12-19T21:53:04.762Z,5.08
2023-12-19T21:55:31.235Z,5.07
2023-12-19T21:57:57.773Z,5.30
2023-12-19T22:00:24.210Z,5.48
2023-12-19T22:02:50.662Z,5.32
2023-12-19T22:05:17.093Z,5.45
2023-12-19T22:07:43.701Z,5.33
2023-12-19T22:10:10.530Z,5.38
2023-12-19T22:12:37.469Z,5.25
2023-12-19T22:15:05.778Z,5.25
2023-12-19T22:17:32.362Z,5.34
2023-12-19T22:19:58.935Z,5.49
2023-12-19T22:22:25.973Z,5.45
2023-12-19T22:24:52.658Z,5.45
2023-12-19T22:27:19.517Z,5.46
2023-12-19T22:29:46.674Z,5.48
2023-12-19T22:32:13.242Z,5.50
2023-12-19T22:34:40.615Z,5.50
2023-12-19T22:37:07.373Z,5.33
2023-12-19T22:39:33.950Z,5.35
2023-12-19T22:42:03.250Z,5.52
2023-12-19T22:44:29.707Z,5.52
2023-12-19T22:46:56.285Z,5.48
2023-12-19T22:49:23.134Z,5.76
2023-12-19T22:51:49.727Z,5.72
2023-12-19T22:54:16.268Z,5.55
2023-12-19T22:56:42.674Z,5.45
2023-12-19T22:59:09.316Z,5.39
2023-12-19T23:01:45.817Z,5.23
2023-12-19T23:04:17.239Z,5.04
2023-12-19T23:06:43.828Z,5.00
2023-12-19T23:09:10.592Z,4.89
2023-12-19T23:11:37.140Z,4.90
2023-12-19T23:14:03.892Z,5.06
2023-12-19T23:16:30.659Z,4.95
2023-12-19T23:18:57.972Z,4.85
2023-12-19T23:21:25.679Z,4.82
2023-12-19T23:23:53.998Z,4.79
2023-12-19T23:26:21.581Z,4.91
2023-12-19T23:28:48.068Z,4.86
2023-12-19T23:31:21.892Z,4.78
2023-12-19T23:33:52.071Z,4.88
2023-12-19T23:36:18.772Z,4.92
2023-12-19T23:38:45.552Z,4.95
2023-12-19T23:41:16.672Z,4.92
2023-12-19T23:43:43.084Z,5.24
2023-12-19T23:46:21.417Z,5.32
2023-12-19T23:48:49.011Z,5.29
2023-12-19T23:51:16.738Z,5.18
2023-12-19T23:53:43.534Z,5.20
2023-12-19T23:56:10.388Z,5.31
2023-12-19T23:58:37.171Z,5.31
